createdAt,value
2023-03-17T00:01:54.409Z,46.50
2023-03-17T00:04:24.331Z,45.10
2023-03-17T00:06:51.827Z,47.30
2023-03-17T00:09:20.259Z,46.60
2023-03-17T00:11:47.687Z,46.60
2023-03-17T00:14:15.328Z,47.20
2023-03-17T00:16:45.023Z,46.70
2023-03-17T00:19:28.416Z,47.00
2023-03-17T00:21:56.200Z,46.60
2023-03-17T00:24:23.476Z,45.00
2023-03-17T00:26:50.443Z,46.50
2023-03-17T00:29:17.387Z,46.60
2023-03-17T00:31:45.729Z,46.50
2023-03-17T00:34:18.369Z,46.30
2023-03-17T00:36:49.771Z,44.10
2023-03-17T00:39:18.511Z,46.80
2023-03-17T00:44:13.118Z,45.40
2023-03-17T00:46:41.642Z,46.00
2023-03-17T00:51:44.747Z,46.40
2023-03-17T00:54:12.885Z,47.10
2023-03-17T00:56:41.780Z,47.20
2023-03-17T00:59:20.864Z,47.10
2023-03-17T01:01:48.989Z,46.80
2023-03-17T01:04:16.061Z,46.70
2023-03-17T01:06:43.341Z,47.60
2023-03-17T01:09:16.943Z,47.50
2023-03-17T01:11:44.363Z,45.40
2023-03-17T01:14:12.450Z,47.50
2023-03-17T01:16:39.683Z,47.50
2023-03-17T01:19:07.227Z,46.60
2023-03-17T01:21:34.601Z,47.40
2023-03-17T01:24:01.654Z,46.30
2023-03-17T01:26:28.749Z,47.60
2023-03-17T01:28:55.840Z,45.30
2023-03-17T01:31:24.387Z,47.50
2023-03-17T01:33:52.790Z,46.80
2023-03-17T01:36:20.710Z,47.60
2023-03-17T01:38:50.940Z,46.50
2023-03-17T01:41:21.141Z,47.60
2023-03-17T01:43:48.351Z,46.20
2023-03-17T01:46:26.165Z,46.30
2023-03-17T01:49:12.729Z,47.70
2023-03-17T01:51:43.102Z,47.60
2023-03-17T01:54:16.476Z,48.00
2023-03-17T01:56:46.228Z,45.10
2023-03-17T01:59:20.640Z,47.10
2023-03-17T02:01:51.245Z,47.90
2023-03-17T02:04:20.784Z,47.90
2023-03-17T02:06:57.991Z,48.00
2023-03-17T02:09:27.238Z,46.50
2023-03-17T02:11:54.618Z,48.10
2023-03-17T02:14:21.758Z,47.00
2023-03-17T02:16:49.424Z,47.00
2023-03-17T02:19:17.079Z,47.90
2023-03-17T02:21:51.960Z,47.60
2023-03-17T02:24:49.784Z,47.60
2023-03-17T02:27:21.313Z,46.30
2023-03-17T02:29:48.618Z,48.40
2023-03-17T02:32:17.898Z,47.60
2023-03-17T02:34:46.404Z,48.60
2023-03-17T02:37:14.057Z,48.60
2023-03-17T02:39:41.000Z,48.30
2023-03-17T02:42:08.256Z,48.60
2023-03-17T02:44:35.759Z,48.60
2023-03-17T02:47:03.336Z,48.20
2023-03-17T02:49:31.901Z,48.80
2023-03-17T02:51:59.068Z,48.60
2023-03-17T02:54:26.593Z,48.60
2023-03-17T02:56:53.553Z,48.40
2023-03-17T02:59:20.787Z,48.80
2023-03-17T03:01:48.653Z,48.70
2023-03-17T03:04:15.769Z,48.40
2023-03-17T03:06:44.630Z,48.60
2023-03-17T03:09:12.357Z,48.50
2023-03-17T03:11:39.905Z,48.70
2023-03-17T03:14:08.216Z,48.70
2023-03-17T03:16:35.180Z,49.00
2023-03-17T03:19:02.257Z,48.70
2023-03-17T03:21:29.504Z,49.60
2023-03-17T03:23:56.658Z,49.50
2023-03-17T03:26:23.958Z,49.20
2023-03-17T03:28:51.285Z,49.20
2023-03-17T03:31:18.304Z,49.10
2023-03-17T03:33:45.700Z,49.40
2023-03-17T03:36:13.473Z,49.40
2023-03-17T03:38:41.643Z,49.80
2023-03-17T03:41:08.979Z,49.20
2023-03-17T03:43:36.248Z,49.20
2023-03-17T03:46:04.545Z,49.00
2023-03-17T03:48:31.647Z,48.70
2023-03-17T03:51:00.491Z,48.20
2023-03-17T03:53:28.283Z,48.50
2023-03-17T03:55:56.123Z,48.50
2023-03-17T03:58:23.405Z,49.00
2023-03-17T04:00:50.455Z,48.60
2023-03-17T04:03:17.581Z,49.40
2023-03-17T04:05:44.485Z,49.10
2023-03-17T04:08:11.811Z,49.10
2023-03-17T04:10:38.758Z,49.20
2023-03-17T04:13:06.616Z,49.40
2023-03-17T04:15:33.745Z,49.20
2023-03-17T04:18:00.708Z,50.00
2023-03-17T04:20:27.830Z,48.70
2023-03-17T04:22:54.794Z,49.50
2023-03-17T04:25:21.724Z,49.10
2023-03-17T04:27:49.018Z,49.20
2023-03-17T04:30:17.027Z,49.40
2023-03-17T04:32:44.960Z,49.40
2023-03-17T04:35:14.500Z,49.50
2023-03-17T04:37:41.748Z,49.70
2023-03-17T04:40:10.046Z,50.00
2023-03-17T04:42:38.173Z,50.00
2023-03-17T04:45:06.522Z,50.10
2023-03-17T04:47:33.986Z,50.00
2023-03-17T04:50:01.519Z,50.00
2023-03-17T04:52:28.717Z,50.40
2023-03-17T04:54:56.802Z,50.20
2023-03-17T04:57:24.619Z,49.90
2023-03-17T04:59:51.799Z,50.20
2023-03-17T05:02:18.974Z,50.70
2023-03-17T05:04:46.734Z,50.40
2023-03-17T05:07:14.119Z,50.50
2023-03-17T05:09:41.962Z,50.50
2023-03-17T05:12:09.965Z,50.80
2023-03-17T05:14:37.399Z,50.80
2023-03-17T05:17:04.593Z,50.60
2023-03-17T05:19:31.821Z,50.10
2023-03-17T05:21:58.915Z,50.30
2023-03-17T05:24:26.009Z,50.80
2023-03-17T05:26:52.955Z,50.60
2023-03-17T05:29:20.182Z,50.70
2023-03-17T05:31:47.483Z,49.90
2023-03-17T05:34:15.329Z,50.40
2023-03-17T05:36:42.257Z,49.70
2023-03-17T05:39:09.364Z,49.40
2023-03-17T05:41:36.361Z,49.20
2023-03-17T05:44:03.390Z,50.10
2023-03-17T05:46:30.861Z,49.10
2023-03-17T05:48:57.955Z,49.90
2023-03-17T05:51:24.957Z,49.60
2023-03-17T05:53:52.224Z,50.10
2023-03-17T05:56:19.145Z,49.60
2023-03-17T05:58:46.177Z,50.00
2023-03-17T06:01:14.274Z,50.10
2023-03-17T06:03:42.066Z,48.90
2023-03-17T06:06:09.289Z,48.60
2023-03-17T06:08:36.329Z,49.90
2023-03-17T06:11:03.229Z,50.00
2023-03-17T06:13:30.373Z,49.20
2023-03-17T06:15:57.619Z,49.20
2023-03-17T06:18:25.013Z,50.10
2023-03-17T06:20:52.030Z,48.60
2023-03-17T06:23:19.069Z,50.50
2023-03-17T06:25:47.554Z,50.60
2023-03-17T06:28:14.662Z,50.80
2023-03-17T06:30:41.752Z,50.20
2023-03-17T06:33:09.237Z,50.00
2023-03-17T06:35:36.496Z,50.80
2023-03-17T06:38:05.077Z,49.90
2023-03-17T06:40:32.305Z,50.20
2023-03-17T06:42:59.871Z,48.90
2023-03-17T06:45:27.387Z,50.30
2023-03-17T06:47:54.423Z,49.00
2023-03-17T06:50:21.878Z,50.60
2023-03-17T06:52:49.470Z,50.10
2023-03-17T06:55:17.484Z,50.10
2023-03-17T06:57:44.559Z,51.00
2023-03-17T07:00:14.123Z,49.80
2023-03-17T07:02:41.547Z,49.60
2023-03-17T07:05:08.768Z,51.00
2023-03-17T07:07:36.149Z,49.80
2023-03-17T07:10:03.344Z,49.70
2023-03-17T07:12:30.449Z,49.90
2023-03-17T07:14:58.115Z,50.60
2023-03-17T07:17:25.488Z,50.60
2023-03-17T07:19:52.490Z,50.00
2023-03-17T07:22:19.641Z,50.50
2023-03-17T07:24:49.025Z,50.30
2023-03-17T07:27:16.945Z,49.80
2023-03-17T07:29:44.106Z,49.70
2023-03-17T07:32:11.604Z,50.20
2023-03-17T07:34:38.599Z,49.40
2023-03-17T07:37:06.990Z,50.00
2023-03-17T07:39:34.157Z,50.30
2023-03-17T07:42:01.105Z,49.60
2023-03-17T07:44:28.916Z,50.50
2023-03-17T07:46:56.848Z,50.40
2023-03-17T07:49:38.406Z,49.90
2023-03-17T07:52:09.225Z,50.40
2023-03-17T07:54:37.634Z,50.00
2023-03-17T07:57:05.755Z,48.80
2023-03-17T07:59:32.977Z,50.60
2023-03-17T08:02:01.725Z,50.50
2023-03-17T08:04:29.305Z,49.40
2023-03-17T08:06:57.523Z,49.10
2023-03-17T08:09:24.952Z,49.20
2023-03-17T08:11:52.157Z,49.20
2023-03-17T08:14:19.246Z,49.10
2023-03-17T08:16:46.458Z,49.00
2023-03-17T08:19:13.665Z,48.70
2023-03-17T08:21:41.071Z,49.40
2023-03-17T08:24:08.207Z,49.10
2023-03-17T08:26:35.309Z,49.40
2023-03-17T08:29:02.323Z,49.70
2023-03-17T08:31:29.402Z,49.10
2023-03-17T08:33:57.502Z,49.50
2023-03-17T08:36:26.117Z,49.40
2023-03-17T08:38:53.496Z,49.20
2023-03-17T08:41:24.166Z,49.20
2023-03-17T08:43:51.739Z,49.40
2023-03-17T08:46:22.708Z,49.10
2023-03-17T08:48:51.618Z,49.50
2023-03-17T08:51:23.659Z,49.60
2023-03-17T08:53:52.389Z,49.40
2023-03-17T08:56:19.502Z,50.30
2023-03-17T08:58:47.679Z,49.30
2023-03-17T09:01:15.886Z,49.10
2023-03-17T09:03:43.926Z,49.10
2023-03-17T09:06:12.514Z,48.60
2023-03-17T09:08:44.674Z,49.30
2023-03-17T09:11:14.913Z,50.40
2023-03-17T09:13:42.271Z,50.40
2023-03-17T09:16:10.055Z,50.30
2023-03-17T09:18:37.120Z,50.70
2023-03-17T09:21:05.193Z,50.50
2023-03-17T09:23:32.862Z,50.30
2023-03-17T09:26:00.877Z,50.10
2023-03-17T09:28:29.180Z,50.20
2023-03-17T09:31:07.950Z,49.70
2023-03-17T09:33:35.011Z,49.90
2023-03-17T09:36:02.283Z,49.50
2023-03-17T09:38:36.209Z,49.60
2023-03-17T09:41:20.925Z,49.60
2023-03-17T09:44:08.947Z,49.30
2023-03-17T09:46:42.658Z,49.60
2023-03-17T09:49:15.196Z,49.40
2023-03-17T09:51:45.148Z,49.20
2023-03-17T09:54:18.336Z,49.00
2023-03-17T09:56:49.718Z,49.50
2023-03-17T09:59:35.533Z,49.10
2023-03-17T10:02:03.085Z,49.40
2023-03-17T10:04:30.282Z,49.80
2023-03-17T10:07:07.022Z,49.90
2023-03-17T10:09:46.109Z,49.40
2023-03-17T10:12:32.234Z,49.60
2023-03-17T10:15:04.331Z,49.50
2023-03-17T10:17:41.532Z,49.30
2023-03-17T10:20:25.372Z,49.70
2023-03-17T10:22:58.255Z,49.70
2023-03-17T10:25:30.058Z,49.20
2023-03-17T10:28:14.514Z,49.20
2023-03-17T10:30:41.778Z,49.40
2023-03-17T10:33:08.902Z,49.40
2023-03-17T10:35:37.544Z,49.60
2023-03-17T10:38:22.040Z,49.50
2023-03-17T10:41:00.728Z,49.50
2023-03-17T10:43:36.365Z,49.40
2023-03-17T10:46:06.023Z,49.90
2023-03-17T10:48:37.996Z,49.80
2023-03-17T10:51:20.505Z,49.70
2023-03-17T10:53:52.460Z,50.20
2023-03-17T10:56:26.683Z,50.10
2023-03-17T10:58:55.590Z,50.60
2023-03-17T11:01:22.827Z,50.20
2023-03-17T11:03:50.849Z,50.20
2023-03-17T11:06:20.830Z,50.20
2023-03-17T11:08:50.513Z,50.30
2023-03-17T11:11:37.766Z,50.90
2023-03-17T11:14:16.203Z,51.30
2023-03-17T11:16:56.832Z,50.70
2023-03-17T11:19:44.673Z,50.30
2023-03-17T11:22:16.127Z,50.30
2023-03-17T11:25:17.382Z,51.00
2023-03-17T11:27:56.857Z,51.10
2023-03-17T11:30:57.161Z,51.20
2023-03-17T11:33:36.720Z,51.00
2023-03-17T11:36:34.498Z,51.40
2023-03-17T11:39:07.228Z,51.10
2023-03-17T11:41:34.203Z,51.40
2023-03-17T11:44:06.962Z,51.90
2023-03-17T11:46:36.971Z,51.50
2023-03-17T11:49:25.691Z,51.40
2023-03-17T11:52:17.322Z,51.00
2023-03-17T11:55:09.052Z,50.90
2023-03-17T11:57:46.617Z,51.40
2023-03-17T12:00:34.414Z,51.40
2023-03-17T12:03:04.724Z,50.90
2023-03-17T12:05:33.977Z,51.40
2023-03-17T12:08:18.621Z,50.80
2023-03-17T12:10:51.670Z,51.40
2023-03-17T12:13:26.797Z,51.20
2023-03-17T12:16:01.961Z,51.40
2023-03-17T12:18:41.712Z,51.30
2023-03-17T12:21:30.999Z,51.00
2023-03-17T12:24:04.445Z,51.50
2023-03-17T12:26:46.106Z,52.60
2023-03-17T12:29:51.456Z,52.30
2023-03-17T12:32:22.538Z,52.10
2023-03-17T12:35:06.021Z,50.60
2023-03-17T12:37:33.416Z,50.60
2023-03-17T12:40:15.379Z,52.50
2023-03-17T12:42:52.320Z,52.40
2023-03-17T12:45:55.038Z,51.20
2023-03-17T12:48:33.691Z,51.10
2023-03-17T12:51:25.878Z,50.10
2023-03-17T12:53:53.499Z,50.50
2023-03-17T12:56:26.447Z,51.10
2023-03-17T12:58:59.855Z,51.10
2023-03-17T13:01:34.423Z,51.80
2023-03-17T13:04:05.744Z,52.60
2023-03-17T13:06:43.685Z,50.00
2023-03-17T13:09:34.050Z,50.10
2023-03-17T13:12:02.581Z,50.00
2023-03-17T13:14:51.664Z,50.30
2023-03-17T13:17:21.652Z,49.90
2023-03-17T13:20:12.912Z,50.10
2023-03-17T13:22:58.522Z,49.80
2023-03-17T13:25:39.524Z,51.30
2023-03-17T13:28:12.373Z,50.90
2023-03-17T13:30:39.437Z,52.20
2023-03-17T13:33:12.184Z,52.80
2023-03-17T13:35:48.046Z,52.10
2023-03-17T13:38:33.519Z,53.00
2023-03-17T13:41:27.086Z,52.70
2023-03-17T13:44:06.763Z,52.30
2023-03-17T13:46:41.337Z,51.30
2023-03-17T13:49:19.509Z,49.90
2023-03-17T13:51:59.976Z,49.90
2023-03-17T13:54:30.187Z,51.30
2023-03-17T13:57:18.790Z,50.40
2023-03-17T14:00:15.166Z,51.40
2023-03-17T14:02:44.648Z,51.00
2023-03-17T14:05:30.610Z,51.70
2023-03-17T14:08:08.574Z,50.50
2023-03-17T14:10:36.221Z,50.50
2023-03-17T14:13:12.006Z,49.30
2023-03-17T14:16:04.344Z,51.10
2023-03-17T14:18:36.259Z,51.40
2023-03-17T14:21:10.566Z,52.30
2023-03-17T14:23:38.612Z,52.00
2023-03-17T14:26:10.839Z,50.40
2023-03-17T14:28:37.976Z,51.20
2023-03-17T14:31:08.065Z,50.60
2023-03-17T14:33:41.079Z,50.60
2023-03-17T14:36:14.181Z,51.40
2023-03-17T14:38:54.901Z,50.60
2023-03-17T14:41:25.350Z,49.50
2023-03-17T14:43:54.634Z,49.60
2023-03-17T14:46:35.276Z,49.70
2023-03-17T14:49:14.389Z,49.40
2023-03-17T14:51:42.360Z,50.10
2023-03-17T14:54:22.809Z,50.10
2023-03-17T14:57:02.338Z,49.90
2023-03-17T14:59:40.445Z,49.50
2023-03-17T15:02:37.891Z,50.10
2023-03-17T15:05:30.803Z,50.00
2023-03-17T15:07:58.211Z,51.50
2023-03-17T15:10:31.192Z,50.80
2023-03-17T15:13:02.459Z,49.90
2023-03-17T15:15:33.361Z,49.80
2023-03-17T15:18:04.816Z,49.40
2023-03-17T15:20:35.313Z,50.20
2023-03-17T15:23:17.052Z,50.40
2023-03-17T15:25:47.084Z,50.50
2023-03-17T15:28:16.737Z,49.20
2023-03-17T15:30:48.252Z,49.60
2023-03-17T15:33:33.368Z,50.10
2023-03-17T15:36:00.679Z,49.70
2023-03-17T15:38:28.300Z,49.20
2023-03-17T15:40:55.661Z,49.90
2023-03-17T15:43:23.518Z,50.30
2023-03-17T15:46:05.724Z,50.00
2023-03-17T15:48:36.355Z,50.10
2023-03-17T15:51:05.839Z,50.90
2023-03-17T15:53:33.049Z,50.80
2023-03-17T15:56:00.416Z,50.50
2023-03-17T15:58:27.636Z,51.30
2023-03-17T16:00:57.576Z,50.10
2023-03-17T16:03:37.649Z,50.40
2023-03-17T16:06:13.542Z,49.70
2023-03-17T16:08:40.652Z,51.10
2023-03-17T16:11:19.308Z,51.00
2023-03-17T16:13:47.791Z,51.40
2023-03-17T16:16:35.245Z,50.00
2023-03-17T16:19:04.813Z,50.60
2023-03-17T16:21:32.741Z,49.80
2023-03-17T16:23:59.766Z,50.70
2023-03-17T16:26:26.917Z,50.00
2023-03-17T16:28:57.866Z,49.70
2023-03-17T16:31:29.311Z,49.80
2023-03-17T16:33:57.376Z,49.30
2023-03-17T16:36:25.311Z,49.70
2023-03-17T16:38:52.376Z,49.40
2023-03-17T16:41:25.168Z,49.10
2023-03-17T16:43:59.094Z,51.30
2023-03-17T16:46:27.992Z,51.80
2023-03-17T16:48:56.137Z,52.40
2023-03-17T16:51:24.938Z,52.40
2023-03-17T16:53:51.990Z,50.70
2023-03-17T16:56:21.597Z,49.70
2023-03-17T16:58:49.320Z,50.30
2023-03-17T17:01:27.668Z,51.10
2023-03-17T17:03:55.389Z,50.10
2023-03-17T17:06:24.425Z,50.90
2023-03-17T17:08:52.455Z,51.30
2023-03-17T17:11:20.432Z,51.60
2023-03-17T17:13:48.955Z,50.10
2023-03-17T17:16:37.348Z,50.30
2023-03-17T17:19:11.225Z,50.50
2023-03-17T17:21:38.510Z,50.50
2023-03-17T17:24:05.591Z,50.00
2023-03-17T17:26:32.633Z,50.10
2023-03-17T17:28:59.672Z,50.10
2023-03-17T17:31:26.933Z,50.10
2023-03-17T17:33:54.014Z,49.80
2023-03-17T17:36:21.160Z,50.00
2023-03-17T17:38:48.198Z,50.30
2023-03-17T17:41:17.120Z,50.20
2023-03-17T17:43:46.133Z,49.70
2023-03-17T17:46:17.751Z,50.00
2023-03-17T17:48:44.948Z,49.70
2023-03-17T17:51:11.876Z,49.90
2023-03-17T17:53:38.892Z,50.30
2023-03-17T17:56:07.530Z,50.10
2023-03-17T17:58:34.613Z,50.30
2023-03-17T18:01:02.313Z,50.70
2023-03-17T18:03:32.072Z,50.30
2023-03-17T18:05:59.546Z,50.60
2023-03-17T18:08:26.950Z,50.60
2023-03-17T18:10:55.755Z,50.30
2023-03-17T18:13:23.523Z,50.30
2023-03-17T18:15:51.165Z,50.30
2023-03-17T18:18:18.213Z,50.80
2023-03-17T18:20:45.525Z,50.60
2023-03-17T18:23:12.880Z,50.80
2023-03-17T18:25:40.016Z,50.90
2023-03-17T18:28:07.026Z,50.80
2023-03-17T18:30:35.305Z,50.60
2023-03-17T18:33:09.285Z,50.60
2023-03-17T18:35:37.359Z,51.00
2023-03-17T18:38:04.450Z,51.00
2023-03-17T18:40:31.541Z,51.70
2023-03-17T18:42:58.554Z,52.80
2023-03-17T18:45:25.740Z,52.50
2023-03-17T18:47:52.716Z,52.60
2023-03-17T18:50:21.782Z,52.80
2023-03-17T18:52:49.705Z,52.50
2023-03-17T18:55:17.261Z,52.60
2023-03-17T18:57:45.109Z,52.50
2023-03-17T19:00:16.323Z,52.80
2023-03-17T19:02:43.772Z,53.00
2023-03-17T19:05:11.638Z,53.20
2023-03-17T19:07:40.458Z,53.10
2023-03-17T19:10:08.484Z,52.80
2023-03-17T19:12:36.298Z,52.80
2023-03-17T19:15:04.267Z,53.00
2023-03-17T19:17:31.383Z,53.30
2023-03-17T19:19:58.367Z,53.20
2023-03-17T19:22:25.532Z,53.30
2023-03-17T19:24:53.345Z,53.00
2023-03-17T19:27:20.696Z,53.00
2023-03-17T19:29:47.684Z,53.40
2023-03-17T19:32:14.736Z,53.40
2023-03-17T19:34:41.688Z,53.20
2023-03-17T19:37:08.866Z,53.20
2023-03-17T19:39:37.604Z,53.10
2023-03-17T19:42:04.680Z,52.90
2023-03-17T19:44:31.701Z,52.90
2023-03-17T19:47:01.604Z,53.00
2023-03-17T19:49:28.685Z,53.30
2023-03-17T19:51:56.490Z,53.00
2023-03-17T19:54:23.823Z,53.20
2023-03-17T19:56:51.077Z,53.30
2023-03-17T19:59:19.732Z,53.20
2023-03-17T20:01:49.092Z,53.50
2023-03-17T20:04:21.867Z,53.40
2023-03-17T20:06:52.171Z,53.40
2023-03-17T20:09:19.167Z,53.80
2023-03-17T20:11:46.443Z,53.60
2023-03-17T20:14:13.505Z,53.30
2023-03-17T20:16:41.539Z,53.30
2023-03-17T20:19:08.755Z,53.50
2023-03-17T20:21:35.918Z,53.60
2023-03-17T20:24:03.580Z,53.70
2023-03-17T20:26:30.509Z,53.90
2023-03-17T20:28:57.630Z,54.00
2023-03-17T20:31:25.363Z,54.10
2023-03-17T20:33:52.422Z,54.00
2023-03-17T20:36:19.581Z,54.10
2023-03-17T20:38:46.686Z,54.20
2023-03-17T20:41:17.418Z,54.20
2023-03-17T20:43:46.058Z,54.60
2023-03-17T20:46:19.270Z,54.30
2023-03-17T20:48:48.440Z,54.20
2023-03-17T20:51:16.756Z,54.10
2023-03-17T20:53:49.998Z,54.10
2023-03-17T20:56:19.831Z,54.00
2023-03-17T20:58:48.482Z,54.20
2023-03-17T21:01:20.467Z,54.10
2023-03-17T21:03:49.164Z,54.40
2023-03-17T21:06:16.750Z,54.40
2023-03-17T21:08:44.115Z,54.40
2023-03-17T21:11:15.403Z,54.70
2023-03-17T21:13:44.116Z,54.80
2023-03-17T21:16:19.828Z,54.90
2023-03-17T21:18:47.831Z,55.00
2023-03-17T21:21:15.743Z,55.40
2023-03-17T21:23:43.242Z,55.70
2023-03-17T21:26:10.763Z,56.00
2023-03-17T21:28:41.357Z,56.40
2023-03-17T21:31:09.099Z,56.60
2023-03-17T21:33:36.589Z,56.70
2023-03-17T21:36:04.206Z,57.10
2023-03-17T21:38:32.061Z,57.20
2023-03-17T21:40:59.021Z,57.20
2023-03-17T21:43:26.055Z,57.60
2023-03-17T21:45:53.128Z,57.80
2023-03-17T21:48:20.807Z,57.60
2023-03-17T21:50:49.227Z,57.50
2023-03-17T21:53:16.156Z,57.50
2023-03-17T21:55:44.056Z,57.70
2023-03-17T21:58:11.697Z,57.80
2023-03-17T22:00:45.020Z,57.80
2023-03-17T22:03:12.380Z,57.80
2023-03-17T22:05:39.433Z,57.80
2023-03-17T22:08:06.574Z,57.90
2023-03-17T22:10:33.884Z,57.80
2023-03-17T22:13:01.036Z,57.80
2023-03-17T22:15:29.172Z,57.80
2023-03-17T22:17:57.702Z,57.80
2023-03-17T22:20:25.472Z,57.80
2023-03-17T22:22:52.564Z,57.90
2023-03-17T22:25:20.661Z,57.80
2023-03-17T22:27:49.643Z,58.00
2023-03-17T22:30:16.957Z,58.00
2023-03-17T22:32:43.975Z,58.00
2023-03-17T22:35:12.018Z,58.20
2023-03-17T22:37:41.193Z,58.30
2023-03-17T22:40:10.213Z,58.30
2023-03-17T22:42:37.212Z,58.30
2023-03-17T22:45:04.845Z,58.20
2023-03-17T22:47:31.826Z,58.20
2023-03-17T22:49:58.732Z,58.20
2023-03-17T22:52:25.954Z,58.40
2023-03-17T22:54:52.895Z,58.30
2023-03-17T22:57:19.880Z,58.40
2023-03-17T22:59:46.876Z,58.40
2023-03-17T23:02:16.258Z,58.30
2023-03-17T23:04:45.513Z,58.50
2023-03-17T23:07:12.508Z,58.50
2023-03-17T23:09:41.379Z,58.60
2023-03-17T23:12:08.962Z,58.50
2023-03-17T23:14:37.196Z,58.70
2023-03-17T23:17:06.114Z,58.70
2023-03-17T23:19:33.476Z,58.70
2023-03-17T23:22:00.523Z,58.50
2023-03-17T23:24:27.532Z,58.50
2023-03-17T23:26:54.429Z,58.60
2023-03-17T23:29:21.484Z,58.70
2023-03-17T23:31:48.585Z,58.70
2023-03-17T23:34:15.916Z,58.60
2023-03-17T23:36:42.949Z,58.50
2023-03-17T23:39:09.967Z,58.60
2023-03-17T23:41:37.349Z,58.70
2023-03-17T23:44:05.465Z,58.80
2023-03-17T23:46:32.600Z,59.00
2023-03-17T23:48:59.687Z,59.20
2023-03-17T23:51:27.253Z,59.50
2023-03-17T23:53:54.379Z,59.80
2023-03-17T23:56:21.361Z,60.40
2023-03-17T23:58:49.070Z,60.70
